sensor_id;sensor_type;location;lat;lon;timestamp;pressure;altitude;pressure_sealevel;temperature;humidity
38880;BME280;25887;30.194;-97.880;2023-06-19T00:01:24;97444.88;;;39.84;32.66
38880;BME280;25887;30.194;-97.880;2023-06-19T00:03:50;97452.16;;;39.77;32.44
38880;BME280;25887;30.194;-97.880;2023-06-19T00:06:16;97462.69;;;39.72;32.73
38880;BME280;25887;30.194;-97.880;2023-06-19T00:08:42;97463.72;;;39.65;32.80
38880;BME280;25887;30.194;-97.880;2023-06-19T00:11:08;97475.31;;;39.59;32.90
38880;BME280;25887;30.194;-97.880;2023-06-19T00:13:34;97488.72;;;39.52;32.71
38880;BME280;25887;30.194;-97.880;2023-06-19T00:16:01;97496.59;;;39.47;32.90
38880;BME280;25887;30.194;-97.880;2023-06-19T00:18:28;97503.59;;;39.41;32.72
38880;BME280;25887;30.194;-97.880;2023-06-19T00:20:54;97493.88;;;39.34;32.98
38880;BME280;25887;30.194;-97.880;2023-06-19T00:23:24;97500.06;;;39.27;33.30
38880;BME280;25887;30.194;-97.880;2023-06-19T00:25:50;97511.44;;;39.23;32.88
38880;BME280;25887;30.194;-97.880;2023-06-19T00:28:16;97510.38;;;39.17;33.53
38880;BME280;25887;30.194;-97.880;2023-06-19T00:30:45;97502.88;;;39.13;33.50
38880;BME280;25887;30.194;-97.880;2023-06-19T00:33:12;97500.81;;;39.08;33.87
38880;BME280;25887;30.194;-97.880;2023-06-19T00:35:38;97500.56;;;39.03;33.71
38880;BME280;25887;30.194;-97.880;2023-06-19T00:38:07;97507.38;;;38.99;33.64
38880;BME280;25887;30.194;-97.880;2023-06-19T00:40:34;97495.81;;;38.92;33.81
38880;BME280;25887;30.194;-97.880;2023-06-19T00:43:01;97504.25;;;38.89;33.92
38880;BME280;25887;30.194;-97.880;2023-06-19T00:45:27;97510.84;;;38.86;34.01
38880;BME280;25887;30.194;-97.880;2023-06-19T00:47:54;97504.03;;;38.84;33.51
38880;BME280;25887;30.194;-97.880;2023-06-19T00:50:22;97498.22;;;38.80;33.77
38880;BME280;25887;30.194;-97.880;2023-06-19T00:52:49;97504.00;;;38.77;34.02
38880;BME280;25887;30.194;-97.880;2023-06-19T00:55:16;97494.69;;;38.73;34.04
38880;BME280;25887;30.194;-97.880;2023-06-19T00:57:43;97486.22;;;38.69;34.35
38880;BME280;25887;30.194;-97.880;2023-06-19T01:00:10;97478.50;;;38.66;34.17
38880;BME280;25887;30.194;-97.880;2023-06-19T01:02:39;97488.81;;;38.63;34.62
38880;BME280;25887;30.194;-97.880;2023-06-19T01:05:05;97481.34;;;38.58;34.62
38880;BME280;25887;30.194;-97.880;2023-06-19T01:10:22;97484.41;;;38.49;35.02
38880;BME280;25887;30.194;-97.880;2023-06-19T01:13:00;97495.34;;;38.47;34.75
38880;BME280;25887;30.194;-97.880;2023-06-19T01:15:27;97487.06;;;38.42;35.11
38880;BME280;25887;30.194;-97.880;2023-06-19T01:17:56;97496.34;;;38.39;35.44
38880;BME280;25887;30.194;-97.880;2023-06-19T01:20:24;97497.75;;;38.35;35.29
38880;BME280;25887;30.194;-97.880;2023-06-19T01:22:51;97510.75;;;38.32;35.28
38880;BME280;25887;30.194;-97.880;2023-06-19T01:25:23;97512.34;;;38.26;35.82
38880;BME280;25887;30.194;-97.880;2023-06-19T01:27:50;97505.06;;;38.20;35.83
38880;BME280;25887;30.194;-97.880;2023-06-19T01:30:17;97493.28;;;38.14;35.81
38880;BME280;25887;30.194;-97.880;2023-06-19T01:32:56;97509.13;;;38.09;35.47
38880;BME280;25887;30.194;-97.880;2023-06-19T01:35:28;97501.84;;;38.03;35.90
38880;BME280;25887;30.194;-97.880;2023-06-19T01:37:55;97507.00;;;37.98;36.46
38880;BME280;25887;30.194;-97.880;2023-06-19T01:40:23;97501.56;;;37.91;36.07
38880;BME280;25887;30.194;-97.880;2023-06-19T01:42:54;97502.97;;;37.87;36.04
38880;BME280;25887;30.194;-97.880;2023-06-19T01:45:20;97509.75;;;37.83;36.22
38880;BME280;25887;30.194;-97.880;2023-06-19T01:47:47;97509.66;;;37.77;36.46
38880;BME280;25887;30.194;-97.880;2023-06-19T01:50:14;97508.97;;;37.68;36.26
38880;BME280;25887;30.194;-97.880;2023-06-19T01:52:41;97505.22;;;37.62;36.02
38880;BME280;25887;30.194;-97.880;2023-06-19T01:55:08;97501.44;;;37.57;36.13
38880;BME280;25887;30.194;-97.880;2023-06-19T01:57:35;97503.88;;;37.52;36.58
38880;BME280;25887;30.194;-97.880;2023-06-19T02:00:03;97508.97;;;37.47;36.53
38880;BME280;25887;30.194;-97.880;2023-06-19T02:02:31;97506.22;;;37.40;36.33
38880;BME280;25887;30.194;-97.880;2023-06-19T02:04:59;97517.72;;;37.34;36.43
38880;BME280;25887;30.194;-97.880;2023-06-19T02:07:25;97521.31;;;37.26;36.62
38880;BME280;25887;30.194;-97.880;2023-06-19T02:09:51;97513.19;;;37.20;36.50
38880;BME280;25887;30.194;-97.880;2023-06-19T02:12:17;97522.84;;;37.14;37.01
38880;BME280;25887;30.194;-97.880;2023-06-19T02:14:44;97520.72;;;37.09;36.88
38880;BME280;25887;30.194;-97.880;2023-06-19T02:17:10;97542.88;;;37.03;37.01
38880;BME280;25887;30.194;-97.880;2023-06-19T02:19:36;97545.31;;;36.98;37.26
38880;BME280;25887;30.194;-97.880;2023-06-19T02:22:03;97551.03;;;36.95;37.45
38880;BME280;25887;30.194;-97.880;2023-06-19T02:24:29;97557.78;;;36.91;37.63
38880;BME280;25887;30.194;-97.880;2023-06-19T02:26:55;97545.78;;;36.87;37.87
38880;BME280;25887;30.194;-97.880;2023-06-19T02:29:21;97541.78;;;36.83;38.14
38880;BME280;25887;30.194;-97.880;2023-06-19T02:31:47;97544.19;;;36.78;38.30
38880;BME280;25887;30.194;-97.880;2023-06-19T02:34:13;97556.47;;;36.72;38.84
38880;BME280;25887;30.194;-97.880;2023-06-19T02:36:40;97557.03;;;36.68;38.89
38880;BME280;25887;30.194;-97.880;2023-06-19T02:39:06;97569.13;;;36.64;38.91
38880;BME280;25887;30.194;-97.880;2023-06-19T02:41:32;97560.00;;;36.58;39.48
38880;BME280;25887;30.194;-97.880;2023-06-19T02:43:59;97580.94;;;36.54;39.63
38880;BME280;25887;30.194;-97.880;2023-06-19T02:46:25;97588.66;;;36.49;39.95
38880;BME280;25887;30.194;-97.880;2023-06-19T02:48:51;97589.88;;;36.47;40.46
38880;BME280;25887;30.194;-97.880;2023-06-19T02:51:18;97592.25;;;36.42;40.57
38880;BME280;25887;30.194;-97.880;2023-06-19T02:53:44;97595.50;;;36.37;40.71
38880;BME280;25887;30.194;-97.880;2023-06-19T02:56:13;97595.81;;;36.34;40.94
38880;BME280;25887;30.194;-97.880;2023-06-19T02:58:40;97607.91;;;36.30;41.03
38880;BME280;25887;30.194;-97.880;2023-06-19T03:01:07;97610.09;;;36.26;41.20
38880;BME280;25887;30.194;-97.880;2023-06-19T03:03:34;97614.34;;;36.21;41.70
38880;BME280;25887;30.194;-97.880;2023-06-19T03:06:07;97616.72;;;36.16;42.19
38880;BME280;25887;30.194;-97.880;2023-06-19T03:08:34;97624.44;;;36.11;42.16
38880;BME280;25887;30.194;-97.880;2023-06-19T03:11:01;97618.81;;;36.06;42.28
38880;BME280;25887;30.194;-97.880;2023-06-19T03:16:14;97630.59;;;35.96;42.66
38880;BME280;25887;30.194;-97.880;2023-06-19T03:18:41;97623.09;;;35.92;43.31
38880;BME280;25887;30.194;-97.880;2023-06-19T03:21:07;97624.59;;;35.86;42.96
38880;BME280;25887;30.194;-97.880;2023-06-19T03:23:33;97630.31;;;35.83;43.14
38880;BME280;25887;30.194;-97.880;2023-06-19T03:26:00;97631.66;;;35.79;43.39
38880;BME280;25887;30.194;-97.880;2023-06-19T03:28:26;97620.69;;;35.74;43.63
38880;BME280;25887;30.194;-97.880;2023-06-19T03:30:52;97632.91;;;35.68;43.78
38880;BME280;25887;30.194;-97.880;2023-06-19T03:33:18;97638.63;;;35.65;44.01
38880;BME280;25887;30.194;-97.880;2023-06-19T03:35:44;97648.63;;;35.63;44.17
38880;BME280;25887;30.194;-97.880;2023-06-19T03:38:10;97654.34;;;35.60;44.42
38880;BME280;25887;30.194;-97.880;2023-06-19T03:40:36;97655.53;;;35.58;44.21
38880;BME280;25887;30.194;-97.880;2023-06-19T03:43:03;97653.19;;;35.55;44.54
38880;BME280;25887;30.194;-97.880;2023-06-19T03:45:29;97656.22;;;35.52;44.60
38880;BME280;25887;30.194;-97.880;2023-06-19T03:47:55;97661.06;;;35.48;44.63
38880;BME280;25887;30.194;-97.880;2023-06-19T03:50:21;97669.81;;;35.42;44.62
38880;BME280;25887;30.194;-97.880;2023-06-19T03:52:47;97675.31;;;35.40;45.16
38880;BME280;25887;30.194;-97.880;2023-06-19T03:55:14;97663.28;;;35.36;45.29
38880;BME280;25887;30.194;-97.880;2023-06-19T03:57:40;97671.81;;;35.32;45.29
38880;BME280;25887;30.194;-97.880;2023-06-19T04:00:06;97679.69;;;35.25;45.75
38880;BME280;25887;30.194;-97.880;2023-06-19T04:02:33;97684.72;;;35.20;45.69
38880;BME280;25887;30.194;-97.880;2023-06-19T04:05:02;97691.41;;;35.16;45.65
38880;BME280;25887;30.194;-97.880;2023-06-19T04:07:28;97692.75;;;35.12;45.86
38880;BME280;25887;30.194;-97.880;2023-06-19T04:09:55;97695.28;;;35.05;45.89
38880;BME280;25887;30.194;-97.880;2023-06-19T04:12:21;97697.44;;;35.02;46.09
38880;BME280;25887;30.194;-97.880;2023-06-19T04:14:47;97706.16;;;34.96;46.39
38880;BME280;25887;30.194;-97.880;2023-06-19T04:17:14;97711.16;;;34.90;46.65
38880;BME280;25887;30.194;-97.880;2023-06-19T04:19:41;97715.13;;;34.86;47.12
38880;BME280;25887;30.194;-97.880;2023-06-19T04:22:07;97720.16;;;34.81;47.31
38880;BME280;25887;30.194;-97.880;2023-06-19T04:24:34;97719.16;;;34.74;47.24
38880;BME280;25887;30.194;-97.880;2023-06-19T04:27:01;97717.00;;;34.70;47.54
38880;BME280;25887;30.194;-97.880;2023-06-19T04:29:27;97716.81;;;34.63;48.04
38880;BME280;25887;30.194;-97.880;2023-06-19T04:31:59;97719.19;;;34.58;47.93
38880;BME280;25887;30.194;-97.880;2023-06-19T04:34:28;97723.19;;;34.54;48.16
38880;BME280;25887;30.194;-97.880;2023-06-19T04:36:55;97732.53;;;34.50;47.84
38880;BME280;25887;30.194;-97.880;2023-06-19T04:39:24;97732.84;;;34.47;48.31
38880;BME280;25887;30.194;-97.880;2023-06-19T04:41:50;97730.97;;;34.39;48.50
38880;BME280;25887;30.194;-97.880;2023-06-19T04:44:17;97721.81;;;34.33;48.70
38880;BME280;25887;30.194;-97.880;2023-06-19T04:46:43;97728.47;;;34.29;48.67
38880;BME280;25887;30.194;-97.880;2023-06-19T04:49:12;97729.00;;;34.25;48.90
38880;BME280;25887;30.194;-97.880;2023-06-19T04:51:40;97736.28;;;34.23;49.11
38880;BME280;25887;30.194;-97.880;2023-06-19T04:54:07;97734.13;;;34.18;49.39
38880;BME280;25887;30.194;-97.880;2023-06-19T04:56:33;97739.78;;;34.15;49.05
38880;BME280;25887;30.194;-97.880;2023-06-19T04:58:59;97736.63;;;34.12;49.43
38880;BME280;25887;30.194;-97.880;2023-06-19T05:01:27;97731.78;;;34.07;49.37
38880;BME280;25887;30.194;-97.880;2023-06-19T05:03:55;97732.94;;;34.04;49.17
38880;BME280;25887;30.194;-97.880;2023-06-19T05:06:23;97734.13;;;34.02;49.32
38880;BME280;25887;30.194;-97.880;2023-06-19T05:08:49;97742.41;;;33.99;49.86
38880;BME280;25887;30.194;-97.880;2023-06-19T05:11:16;97744.41;;;33.97;49.48
38880;BME280;25887;30.194;-97.880;2023-06-19T05:13:42;97741.25;;;33.93;49.78
38880;BME280;25887;30.194;-97.880;2023-06-19T05:16:08;97739.91;;;33.89;49.76
38880;BME280;25887;30.194;-97.880;2023-06-19T05:18:35;97743.19;;;33.83;49.78
38880;BME280;25887;30.194;-97.880;2023-06-19T05:21:01;97738.66;;;33.75;50.25
38880;BME280;25887;30.194;-97.880;2023-06-19T05:23:29;97747.81;;;33.73;50.04
38880;BME280;25887;30.194;-97.880;2023-06-19T05:25:55;97742.97;;;33.68;50.63
38880;BME280;25887;30.194;-97.880;2023-06-19T05:28:22;97743.28;;;33.65;50.29
38880;BME280;25887;30.194;-97.880;2023-06-19T05:30:48;97740.97;;;33.62;50.38
38880;BME280;25887;30.194;-97.880;2023-06-19T05:33:15;97745.94;;;33.57;50.86
38880;BME280;25887;30.194;-97.880;2023-06-19T05:35:42;97747.94;;;33.55;50.75
38880;BME280;25887;30.194;-97.880;2023-06-19T05:38:10;97747.22;;;33.53;51.16
38880;BME280;25887;30.194;-97.880;2023-06-19T05:40:37;97748.84;;;33.46;50.58
38880;BME280;25887;30.194;-97.880;2023-06-19T05:43:03;97745.88;;;33.41;51.28
38880;BME280;25887;30.194;-97.880;2023-06-19T05:45:29;97748.81;;;33.38;50.94
38880;BME280;25887;30.194;-97.880;2023-06-19T05:47:56;97749.28;;;33.33;51.60
38880;BME280;25887;30.194;-97.880;2023-06-19T05:50:23;97753.25;;;33.29;51.58
38880;BME280;25887;30.194;-97.880;2023-06-19T05:52:49;97753.56;;;33.26;51.46
38880;BME280;25887;30.194;-97.880;2023-06-19T05:55:15;97749.41;;;33.23;51.10
38880;BME280;25887;30.194;-97.880;2023-06-19T05:57:42;97752.38;;;33.20;51.84
38880;BME280;25887;30.194;-97.880;2023-06-19T06:00:09;97747.53;;;33.16;51.26
38880;BME280;25887;30.194;-97.880;2023-06-19T06:02:40;97751.50;;;33.12;51.63
38880;BME280;25887;30.194;-97.880;2023-06-19T06:05:07;97745.78;;;33.07;51.69
38880;BME280;25887;30.194;-97.880;2023-06-19T06:07:34;97753.09;;;33.05;51.92
38880;BME280;25887;30.194;-97.880;2023-06-19T06:10:01;97751.59;;;33.02;52.17
38880;BME280;25887;30.194;-97.880;2023-06-19T06:12:28;97750.22;;;32.98;51.75
38880;BME280;25887;30.194;-97.880;2023-06-19T06:14:54;97753.22;;;32.95;52.09
38880;BME280;25887;30.194;-97.880;2023-06-19T06:17:20;97751.72;;;32.92;51.92
38880;BME280;25887;30.194;-97.880;2023-06-19T06:19:46;97742.53;;;32.87;52.59
38880;BME280;25887;30.194;-97.880;2023-06-19T06:22:12;97749.09;;;32.83;52.59
38880;BME280;25887;30.194;-97.880;2023-06-19T06:24:38;97738.78;;;32.80;52.53
38880;BME280;25887;30.194;-97.880;2023-06-19T06:27:05;97736.44;;;32.77;52.46
38880;BME280;25887;30.194;-97.880;2023-06-19T06:29:31;97743.72;;;32.75;52.67
38880;BME280;25887;30.194;-97.880;2023-06-19T06:32:05;97734.22;;;32.72;52.31
38880;BME280;25887;30.194;-97.880;2023-06-19T06:34:32;97746.03;;;32.69;52.80
38880;BME280;25887;30.194;-97.880;2023-06-19T06:37:01;97753.31;;;32.67;52.37
38880;BME280;25887;30.194;-97.880;2023-06-19T06:39:28;97750.66;;;32.67;52.87
38880;BME280;25887;30.194;-97.880;2023-06-19T06:41:54;97745.66;;;32.64;52.71
38880;BME280;25887;30.194;-97.880;2023-06-19T06:44:20;97746.94;;;32.60;52.83
38880;BME280;25887;30.194;-97.880;2023-06-19T06:46:47;97750.34;;;32.53;53.00
38880;BME280;25887;30.194;-97.880;2023-06-19T06:49:13;97756.00;;;32.50;53.34
38880;BME280;25887;30.194;-97.880;2023-06-19T06:51:41;97757.31;;;32.46;53.56
38880;BME280;25887;30.194;-97.880;2023-06-19T06:54:07;97755.09;;;32.41;52.98
38880;BME280;25887;30.194;-97.880;2023-06-19T06:56:33;97752.75;;;32.38;53.25
38880;BME280;25887;30.194;-97.880;2023-06-19T06:59:00;97747.72;;;32.35;53.34
38880;BME280;25887;30.194;-97.880;2023-06-19T07:01:26;97749.38;;;32.36;53.37
38880;BME280;25887;30.194;-97.880;2023-06-19T07:03:52;97744.38;;;32.33;53.43
38880;BME280;25887;30.194;-97.880;2023-06-19T07:06:19;97750.25;;;32.27;53.63
38880;BME280;25887;30.194;-97.880;2023-06-19T07:08:45;97748.75;;;32.24;53.62
38880;BME280;25887;30.194;-97.880;2023-06-19T07:11:13;97745.53;;;32.21;53.67
38880;BME280;25887;30.194;-97.880;2023-06-19T07:13:40;97751.19;;;32.17;54.07
38880;BME280;25887;30.194;-97.880;2023-06-19T07:16:07;97756.94;;;32.13;53.93
38880;BME280;25887;30.194;-97.880;2023-06-19T07:18:33;97754.59;;;32.10;53.62
38880;BME280;25887;30.194;-97.880;2023-06-19T07:21:04;97764.69;;;32.06;54.12
38880;BME280;25887;30.194;-97.880;2023-06-19T07:23:36;97764.97;;;32.03;53.82
38880;BME280;25887;30.194;-97.880;2023-06-19T07:26:02;97768.47;;;32.04;53.77
38880;BME280;25887;30.194;-97.880;2023-06-19T07:28:28;97760.13;;;31.99;54.40
38880;BME280;25887;30.194;-97.880;2023-06-19T07:30:55;97761.25;;;31.96;54.27
38880;BME280;25887;30.194;-97.880;2023-06-19T07:33:22;97757.22;;;31.92;54.24
38880;BME280;25887;30.194;-97.880;2023-06-19T07:35:48;97757.66;;;31.87;54.71
38880;BME280;25887;30.194;-97.880;2023-06-19T07:38:14;97759.81;;;31.84;54.40
38880;BME280;25887;30.194;-97.880;2023-06-19T07:40:41;97763.72;;;31.80;54.56
38880;BME280;25887;30.194;-97.880;2023-06-19T07:43:07;97763.16;;;31.76;54.50
38880;BME280;25887;30.194;-97.880;2023-06-19T07:45:33;97762.34;;;31.76;54.56
38880;BME280;25887;30.194;-97.880;2023-06-19T07:48:00;97782.03;;;31.73;54.82
38880;BME280;25887;30.194;-97.880;2023-06-19T07:50:26;97775.38;;;31.69;54.56
38880;BME280;25887;30.194;-97.880;2023-06-19T07:52:52;97780.13;;;31.66;54.87
38880;BME280;25887;30.194;-97.880;2023-06-19T07:55:18;97781.41;;;31.61;55.13
38880;BME280;25887;30.194;-97.880;2023-06-19T07:57:46;97783.50;;;31.58;55.29
38880;BME280;25887;30.194;-97.880;2023-06-19T08:00:13;97794.28;;;31.56;55.03
38880;BME280;25887;30.194;-97.880;2023-06-19T08:02:41;97795.41;;;31.54;55.54
38880;BME280;25887;30.194;-97.880;2023-06-19T08:05:08;97799.19;;;31.51;55.19
38880;BME280;25887;30.194;-97.880;2023-06-19T08:07:35;97793.19;;;31.49;55.49
38880;BME280;25887;30.194;-97.880;2023-06-19T08:10:02;97797.81;;;31.47;55.62
38880;BME280;25887;30.194;-97.880;2023-06-19T08:12:30;97785.94;;;31.42;55.76
38880;BME280;25887;30.194;-97.880;2023-06-19T08:14:56;97788.75;;;31.40;55.46
38880;BME280;25887;30.194;-97.880;2023-06-19T08:17:22;97786.53;;;31.36;55.73
38880;BME280;25887;30.194;-97.880;2023-06-19T08:19:49;97780.69;;;31.32;55.92
38880;BME280;25887;30.194;-97.880;2023-06-19T08:22:15;97781.66;;;31.31;56.14
38880;BME280;25887;30.194;-97.880;2023-06-19T08:24:41;97780.97;;;31.29;55.79
38880;BME280;25887;30.194;-97.880;2023-06-19T08:27:07;97781.25;;;31.26;56.07
38880;BME280;25887;30.194;-97.880;2023-06-19T08:29:34;97776.94;;;31.25;56.06
38880;BME280;25887;30.194;-97.880;2023-06-19T08:32:02;97779.00;;;31.21;56.30
38880;BME280;25887;30.194;-97.880;2023-06-19T08:34:28;97776.47;;;31.20;56.27
38880;BME280;25887;30.194;-97.880;2023-06-19T08:36:54;97774.81;;;31.19;56.28
38880;BME280;25887;30.194;-97.880;2023-06-19T08:39:21;97778.59;;;31.16;56.27
38880;BME280;25887;30.194;-97.880;2023-06-19T08:41:48;97773.28;;;31.16;56.32
38880;BME280;25887;30.194;-97.880;2023-06-19T08:44:14;97769.13;;;31.14;56.47
38880;BME280;25887;30.194;-97.880;2023-06-19T08:46:40;97770.06;;;31.13;56.45
38880;BME280;25887;30.194;-97.880;2023-06-19T08:49:08;97775.38;;;31.13;56.51
38880;BME280;25887;30.194;-97.880;2023-06-19T08:51:37;97781.69;;;31.12;56.64
38880;BME280;25887;30.194;-97.880;2023-06-19T08:54:05;97777.34;;;31.11;56.59
38880;BME280;25887;30.194;-97.880;2023-06-19T08:56:34;97770.53;;;31.08;56.53
38880;BME280;25887;30.194;-97.880;2023-06-19T08:59:10;97774.84;;;31.09;56.62
38880;BME280;25887;30.194;-97.880;2023-06-19T09:01:37;97772.50;;;31.06;56.77
38880;BME280;25887;30.194;-97.880;2023-06-19T09:04:13;97768.03;;;31.06;56.65
38880;BME280;25887;30.194;-97.880;2023-06-19T09:06:53;97770.78;;;31.05;57.03
38880;BME280;25887;30.194;-97.880;2023-06-19T09:09:21;97769.28;;;31.02;56.89
38880;BME280;25887;30.194;-97.880;2023-06-19T09:12:01;97780.72;;;31.03;56.78
38880;BME280;25887;30.194;-97.880;2023-06-19T09:14:35;97789.66;;;31.02;57.20
38880;BME280;25887;30.194;-97.880;2023-06-19T09:19:54;97788.81;;;31.01;56.72
38880;BME280;25887;30.194;-97.880;2023-06-19T09:22:25;97786.16;;;31.01;57.05
38880;BME280;25887;30.194;-97.880;2023-06-19T09:24:51;97779.19;;;31.00;57.04
38880;BME280;25887;30.194;-97.880;2023-06-19T09:27:18;97786.03;;;31.03;57.00
38880;BME280;25887;30.194;-97.880;2023-06-19T09:29:47;97780.03;;;31.01;57.16
38880;BME280;25887;30.194;-97.880;2023-06-19T09:32:22;97784.50;;;31.00;57.39
38880;BME280;25887;30.194;-97.880;2023-06-19T09:34:49;97780.19;;;30.99;57.26
38880;BME280;25887;30.194;-97.880;2023-06-19T09:37:22;97782.16;;;30.97;57.57
38880;BME280;25887;30.194;-97.880;2023-06-19T09:46:08;97783.41;;;30.93;57.28
38880;BME280;25887;30.194;-97.880;2023-06-19T09:48:44;97787.28;;;30.89;57.64
38880;BME280;25887;30.194;-97.880;2023-06-19T09:51:18;97784.94;;;30.86;57.96
38880;BME280;25887;30.194;-97.880;2023-06-19T09:53:49;97783.56;;;30.82;57.66
38880;BME280;25887;30.194;-97.880;2023-06-19T09:56:17;97780.06;;;30.82;57.90
38880;BME280;25887;30.194;-97.880;2023-06-19T09:58:50;97781.88;;;30.81;57.77
38880;BME280;25887;30.194;-97.880;2023-06-19T10:01:19;97779.38;;;30.79;57.77
38880;BME280;25887;30.194;-97.880;2023-06-19T10:03:45;97782.84;;;30.80;58.10
38880;BME280;25887;30.194;-97.880;2023-06-19T10:06:16;97775.03;;;30.78;57.80
38880;BME280;25887;30.194;-97.880;2023-06-19T10:08:44;97775.03;;;30.78;57.96
38880;BME280;25887;30.194;-97.880;2023-06-19T10:11:10;97782.84;;;30.80;58.34
38880;BME280;25887;30.194;-97.880;2023-06-19T10:13:40;97781.19;;;30.79;58.19
38880;BME280;25887;30.194;-97.880;2023-06-19T10:16:22;97786.47;;;30.79;58.07
38880;BME280;25887;30.194;-97.880;2023-06-19T10:18:49;97784.97;;;30.76;57.98
38880;BME280;25887;30.194;-97.880;2023-06-19T10:21:17;97783.28;;;30.75;58.27
38880;BME280;25887;30.194;-97.880;2023-06-19T10:23:56;97779.22;;;30.71;58.37
38880;BME280;25887;30.194;-97.880;2023-06-19T10:26:33;97791.66;;;30.71;58.26
38880;BME280;25887;30.194;-97.880;2023-06-19T10:29:00;97791.13;;;30.67;58.37
38880;BME280;25887;30.194;-97.880;2023-06-19T10:31:26;97793.16;;;30.64;58.51
38880;BME280;25887;30.194;-97.880;2023-06-19T10:33:56;97791.78;;;30.60;58.53
38880;BME280;25887;30.194;-97.880;2023-06-19T10:36:23;97788.41;;;30.58;58.76
38880;BME280;25887;30.194;-97.880;2023-06-19T10:38:51;97787.56;;;30.57;nan
38880;BME280;25887;30.194;-97.880;2023-06-19T10:41:19;97790.38;;;30.56;58.80
38880;BME280;25887;30.194;-97.880;2023-06-19T10:44:06;97793.03;;;30.56;58.59
38880;BME280;25887;30.194;-97.880;2023-06-19T10:46:38;97789.00;;;30.51;59.15
38880;BME280;25887;30.194;-97.880;2023-06-19T10:49:07;97797.91;;;30.50;59.07
38880;BME280;25887;30.194;-97.880;2023-06-19T10:51:41;97794.56;;;30.48;58.96
38880;BME280;25887;30.194;-97.880;2023-06-19T10:54:10;97795.81;;;30.44;59.10
38880;BME280;25887;30.194;-97.880;2023-06-19T10:56:36;97802.09;;;30.43;58.83
38880;BME280;25887;30.194;-97.880;2023-06-19T10:59:07;97815.47;;;30.42;59.03
38880;BME280;25887;30.194;-97.880;2023-06-19T11:01:41;97811.16;;;30.41;59.05
38880;BME280;25887;30.194;-97.880;2023-06-19T11:04:09;97814.78;;;30.40;59.10
38880;BME280;25887;30.194;-97.880;2023-06-19T11:06:37;97831.53;;;30.40;59.09
38880;BME280;25887;30.194;-97.880;2023-06-19T11:09:07;97825.38;;;30.40;59.29
38880;BME280;25887;30.194;-97.880;2023-06-19T11:11:41;97826.22;;;30.40;59.12
38880;BME280;25887;30.194;-97.880;2023-06-19T11:14:08;97824.41;;;30.41;59.11
38880;BME280;25887;30.194;-97.880;2023-06-19T11:16:45;97825.38;;;30.40;58.63
38880;BME280;25887;30.194;-97.880;2023-06-19T11:19:19;97832.34;;;30.41;58.99
38880;BME280;25887;30.194;-97.880;2023-06-19T11:21:47;97825.38;;;30.40;58.98
38880;BME280;25887;30.194;-97.880;2023-06-19T11:24:14;97834.19;;;30.40;59.07
38880;BME280;25887;30.194;-97.880;2023-06-19T11:26:42;97842.97;;;30.41;59.07
38880;BME280;25887;30.194;-97.880;2023-06-19T11:31:41;97838.78;;;30.38;58.89
38880;BME280;25887;30.194;-97.880;2023-06-19T11:34:07;97844.78;;;30.40;58.78
38880;BME280;25887;30.194;-97.880;2023-06-19T11:36:37;97838.94;;;30.37;59.06
38880;BME280;25887;30.194;-97.880;2023-06-19T11:39:04;97847.97;;;30.34;59.22
38880;BME280;25887;30.194;-97.880;2023-06-19T11:41:35;97843.50;;;30.35;59.23
38880;BME280;25887;30.194;-97.880;2023-06-19T11:44:05;97851.59;;;30.33;59.22
38880;BME280;25887;30.194;-97.880;2023-06-19T11:46:33;97855.22;;;30.32;59.24
38880;BME280;25887;30.194;-97.880;2023-06-19T11:49:16;97857.19;;;30.30;59.38
38880;BME280;25887;30.194;-97.880;2023-06-19T11:51:44;97853.84;;;30.28;59.25
38880;BME280;25887;30.194;-97.880;2023-06-19T11:54:12;97859.13;;;30.28;59.36
38880;BME280;25887;30.194;-97.880;2023-06-19T11:56:40;97871.66;;;30.26;59.19
38880;BME280;25887;30.194;-97.880;2023-06-19T11:59:07;97867.34;;;30.25;59.65
38880;BME280;25887;30.194;-97.880;2023-06-19T12:01:35;97877.09;;;30.24;59.51
38880;BME280;25887;30.194;-97.880;2023-06-19T12:04:04;97873.63;;;30.24;59.40
38880;BME280;25887;30.194;-97.880;2023-06-19T12:06:30;97868.31;;;30.24;59.43
38880;BME280;25887;30.194;-97.880;2023-06-19T12:08:58;97868.31;;;30.24;59.43
38880;BME280;25887;30.194;-97.880;2023-06-19T12:11:24;97869.16;;;30.24;59.37
38880;BME280;25887;30.194;-97.880;2023-06-19T12:13:51;97873.47;;;30.26;59.60
38880;BME280;25887;30.194;-97.880;2023-06-19T12:16:19;97882.28;;;30.26;59.33
38880;BME280;25887;30.194;-97.880;2023-06-19T12:18:45;97880.59;;;30.25;59.45
38880;BME280;25887;30.194;-97.880;2023-06-19T12:21:11;97884.22;;;30.24;59.54
38880;BME280;25887;30.194;-97.880;2023-06-19T12:23:37;97880.59;;;30.25;59.53
38880;BME280;25887;30.194;-97.880;2023-06-19T12:26:03;97890.38;;;30.24;59.68
38880;BME280;25887;30.194;-97.880;2023-06-19T12:28:31;97895.53;;;30.26;59.71
38880;BME280;25887;30.194;-97.880;2023-06-19T12:30:57;97891.06;;;30.27;59.54
38880;BME280;25887;30.194;-97.880;2023-06-19T12:33:24;97896.34;;;30.27;59.84
38880;BME280;25887;30.194;-97.880;2023-06-19T12:35:50;97900.81;;;30.26;59.40
38880;BME280;25887;30.194;-97.880;2023-06-19T12:38:18;97894.53;;;30.27;59.75
38880;BME280;25887;30.194;-97.880;2023-06-19T12:40:44;97899.00;;;30.27;59.83
38880;BME280;25887;30.194;-97.880;2023-06-19T12:43:13;97893.72;;;30.27;59.84
38880;BME280;25887;30.194;-97.880;2023-06-19T12:45:40;97885.66;;;30.28;59.81
38880;BME280;25887;30.194;-97.880;2023-06-19T12:48:07;97897.91;;;30.29;59.71
38880;BME280;25887;30.194;-97.880;2023-06-19T12:50:33;97895.41;;;30.28;59.72
38880;BME280;25887;30.194;-97.880;2023-06-19T12:52:59;97898.91;;;30.28;59.92
38880;BME280;25887;30.194;-97.880;2023-06-19T12:55:25;97897.19;;;30.27;60.02
38880;BME280;25887;30.194;-97.880;2023-06-19T12:57:51;97902.63;;;30.26;60.20
38880;BME280;25887;30.194;-97.880;2023-06-19T13:00:18;97905.16;;;30.27;60.07